createdAt,value
2018-05-31T00:00:46.584Z,95580.83
2018-05-31T00:03:14.100Z,95584.59
2018-05-31T00:05:41.674Z,95575.78
2018-05-31T00:08:09.213Z,95577.11
2018-05-31T00:10:36.728Z,95567.05
2018-05-31T00:13:04.245Z,95573.22
2018-05-31T00:15:31.764Z,95567.84
2018-05-31T00:17:59.291Z,95569.52
2018-05-31T00:20:26.805Z,95571.24
2018-05-31T00:22:54.324Z,95573.05
2018-05-31T00:25:21.834Z,95565.20
2018-05-31T00:27:49.340Z,95563.38
2018-05-31T00:30:16.864Z,95551.45
2018-05-31T00:32:44.395Z,95563.06
2018-05-31T00:35:11.913Z,95565.44
2018-05-31T00:37:39.425Z,95555.46
2018-05-31T00:40:06.939Z,95556.89
2018-05-31T00:42:34.450Z,95554.85
2018-05-31T00:45:01.984Z,95549.66
2018-05-31T00:47:29.632Z,95550.56
2018-05-31T00:49:57.150Z,95550.59
2018-05-31T00:52:24.668Z,95548.05
2018-05-31T00:54:52.174Z,95546.48
2018-05-31T00:57:19.716Z,95547.77
2018-05-31T00:59:47.239Z,95547.81
2018-05-31T01:02:14.786Z,95541.69
2018-05-31T01:04:42.332Z,95546.23
2018-05-31T01:07:09.901Z,95540.03
2018-05-31T01:09:37.451Z,95542.05
2018-05-31T01:12:04.987Z,95526.82
2018-05-31T01:14:32.570Z,95543.56
2018-05-31T01:17:00.081Z,95547.32
2018-05-31T01:19:27.635Z,95543.87
2018-05-31T01:21:55.191Z,95551.34
2018-05-31T01:24:22.695Z,95540.14
2018-05-31T01:26:50.208Z,95547.75
2018-05-31T01:29:17.760Z,95547.45
2018-05-31T01:31:45.355Z,95548.31
2018-05-31T01:34:12.886Z,95537.86
2018-05-31T01:36:40.451Z,95546.78
2018-05-31T01:39:07.976Z,95550.61
2018-05-31T01:41:35.479Z,95553.59
2018-05-31T01:44:02.993Z,95556.84
2018-05-31T01:46:30.510Z,95547.37
2018-05-31T01:48:58.259Z,95544.43
2018-05-31T01:51:25.790Z,95538.86
2018-05-31T01:53:53.307Z,95544.07
2018-05-31T01:56:20.807Z,95542.99
2018-05-31T01:58:48.325Z,95524.14
2018-05-31T02:01:15.852Z,95543.04
2018-05-31T02:03:43.408Z,95542.95
2018-05-31T02:06:10.930Z,95546.77
2018-05-31T02:08:38.504Z,95543.39
2018-05-31T02:11:06.023Z,95546.04
2018-05-31T02:13:33.543Z,95546.50
2018-05-31T02:16:01.065Z,95550.87
2018-05-31T02:18:28.585Z,95559.05
2018-05-31T02:20:56.111Z,95559.90
2018-05-31T02:23:23.635Z,95548.55
2018-05-31T02:25:51.204Z,95553.59
2018-05-31T02:28:18.726Z,95562.42
2018-05-31T02:30:46.324Z,95563.63
2018-05-31T02:33:13.834Z,95561.25
2018-05-31T02:35:41.397Z,95561.30
2018-05-31T02:38:08.919Z,95570.84
2018-05-31T02:40:36.445Z,95570.17
2018-05-31T02:43:04.010Z,95565.72
2018-05-31T02:45:31.512Z,95568.90
2018-05-31T02:47:59.031Z,95556.89
2018-05-31T02:50:26.541Z,95571.38
2018-05-31T02:52:54.061Z,95574.34
2018-05-31T02:55:21.583Z,95539.14
2018-05-31T02:57:49.140Z,95582.74
2018-05-31T03:00:16.720Z,95577.90
2018-05-31T03:02:44.251Z,95553.55
2018-05-31T03:05:11.816Z,95577.25
2018-05-31T03:07:39.371Z,95580.41
2018-05-31T03:10:06.936Z,95583.23
2018-05-31T03:12:34.451Z,95582.17
2018-05-31T03:15:02.019Z,95586.74
2018-05-31T03:17:29.544Z,95587.51
2018-05-31T03:19:57.058Z,95592.64
2018-05-31T03:22:24.585Z,95598.29
2018-05-31T03:24:52.111Z,95597.07
2018-05-31T03:27:19.679Z,95597.80
2018-05-31T03:29:47.217Z,95595.61
2018-05-31T03:32:14.728Z,95601.63
2018-05-31T03:34:42.299Z,95604.06
2018-05-31T03:37:09.835Z,95602.90
2018-05-31T03:39:37.371Z,95593.49
2018-05-31T03:42:04.907Z,95602.96
2018-05-31T03:44:32.481Z,95602.76
2018-05-31T03:47:00.029Z,95605.27
2018-05-31T03:49:27.544Z,95611.59
2018-05-31T03:51:55.073Z,95603.09
2018-05-31T03:54:22.657Z,95612.66
2018-05-31T03:56:50.237Z,95612.98
2018-05-31T03:59:17.754Z,95611.77
2018-05-31T04:01:45.314Z,95610.17
2018-05-31T04:04:12.850Z,95615.98
2018-05-31T04:06:40.386Z,95615.93
2018-05-31T04:09:07.896Z,95617.73
2018-05-31T04:11:35.430Z,95620.09
2018-05-31T04:14:03.222Z,95616.15
2018-05-31T04:16:30.745Z,95607.89
2018-05-31T04:18:58.300Z,95598.96
2018-05-31T04:21:25.826Z,95611.22
2018-05-31T04:23:53.354Z,95611.20
2018-05-31T04:26:20.880Z,95607.35
2018-05-31T04:28:48.410Z,95597.80
2018-05-31T04:31:15.946Z,95609.98
2018-05-31T04:33:43.527Z,95608.98
2018-05-31T04:36:11.051Z,95605.20
2018-05-31T04:38:38.554Z,95607.74
2018-05-31T04:41:06.076Z,95607.50
2018-05-31T04:43:33.600Z,95612.36
2018-05-31T04:46:01.129Z,95617.22
2018-05-31T04:48:28.719Z,95603.72
2018-05-31T04:50:56.259Z,95617.16
2018-05-31T04:53:23.795Z,95614.60
2018-05-31T04:55:51.321Z,95616.98
2018-05-31T04:58:18.876Z,95617.66
2018-05-31T05:00:46.411Z,95625.41
2018-05-31T05:03:13.934Z,95628.14
2018-05-31T05:05:41.455Z,95626.52
2018-05-31T05:08:09.036Z,95622.35
2018-05-31T05:10:36.555Z,95635.90
2018-05-31T05:13:04.069Z,95625.22
2018-05-31T05:15:31.632Z,95626.53
2018-05-31T05:17:59.158Z,95629.27
2018-05-31T05:20:26.678Z,95623.80
2018-05-31T05:22:54.250Z,95626.93
2018-05-31T05:25:21.803Z,95629.42
2018-05-31T05:27:49.351Z,95624.32
2018-05-31T05:30:16.926Z,95623.91
2018-05-31T05:32:44.463Z,95626.34
2018-05-31T05:35:11.982Z,95618.98
2018-05-31T05:37:39.521Z,95621.72
2018-05-31T05:40:07.056Z,95608.59
2018-05-31T05:42:34.578Z,95623.08
2018-05-31T05:45:02.109Z,95621.97
2018-05-31T05:47:29.684Z,95622.49
2018-05-31T05:49:57.218Z,95628.31
2018-05-31T05:52:24.780Z,95631.89
2018-05-31T05:54:52.336Z,95619.59
2018-05-31T05:57:19.864Z,95610.34
2018-05-31T05:59:47.407Z,95627.66
2018-05-31T06:02:14.996Z,95611.91
2018-05-31T06:04:42.527Z,95624.01
2018-05-31T06:07:10.064Z,95617.05
2018-05-31T06:09:37.620Z,95621.13
2018-05-31T06:12:05.141Z,95616.87
2018-05-31T06:14:32.680Z,95618.33
2018-05-31T06:17:00.256Z,95618.61
2018-05-31T06:19:27.769Z,95617.45
2018-05-31T06:21:55.311Z,95622.09
2018-05-31T06:24:22.872Z,95618.38
2018-05-31T06:26:50.401Z,95602.66
2018-05-31T06:29:18.046Z,95612.89
2018-05-31T06:31:45.572Z,95608.81
2018-05-31T06:34:13.106Z,95606.97
2018-05-31T06:36:41.439Z,95615.88
2018-05-31T06:39:08.962Z,95609.95
2018-05-31T06:41:36.472Z,95605.92
2018-05-31T06:44:04.023Z,95599.02
2018-05-31T06:46:31.590Z,95612.69
2018-05-31T06:48:59.102Z,95600.23
2018-05-31T06:51:26.616Z,95604.59
2018-05-31T06:53:54.128Z,95610.03
2018-05-31T06:56:21.648Z,95613.09
2018-05-31T06:58:49.174Z,95608.13
2018-05-31T07:01:16.998Z,95608.30
2018-05-31T07:03:44.548Z,95598.02
2018-05-31T07:08:53.946Z,95600.22
2018-05-31T07:11:21.456Z,95609.70
2018-05-31T07:13:49.003Z,95600.64
2018-05-31T07:16:16.517Z,95604.44
2018-05-31T07:18:44.024Z,95609.52
2018-05-31T07:21:11.536Z,95607.60
2018-05-31T07:23:39.045Z,95593.63
2018-05-31T07:26:06.553Z,95603.48
2018-05-31T07:28:34.070Z,95608.06
2018-05-31T07:31:01.574Z,95605.21
2018-05-31T07:33:29.084Z,95595.84
2018-05-31T07:35:56.596Z,95599.09
2018-05-31T07:38:24.194Z,95602.67
2018-05-31T07:40:51.697Z,95600.41
2018-05-31T07:43:19.214Z,95596.94
2018-05-31T07:45:46.738Z,95602.37
2018-05-31T07:48:14.315Z,95602.24
2018-05-31T07:50:41.819Z,95604.13
2018-05-31T07:53:09.336Z,95599.00
2018-05-31T07:55:36.831Z,95599.95
2018-05-31T07:58:04.832Z,95590.52
2018-05-31T08:00:32.435Z,95599.82
2018-05-31T08:02:59.936Z,95596.06
2018-05-31T08:05:27.460Z,95585.58
2018-05-31T08:07:55.011Z,95590.02
2018-05-31T08:10:22.519Z,95592.48
2018-05-31T08:12:50.084Z,95593.95
2018-05-31T08:15:17.609Z,95596.30
2018-05-31T08:17:45.148Z,95583.70
2018-05-31T08:20:12.661Z,95597.91
2018-05-31T08:22:40.172Z,95588.20
2018-05-31T08:25:07.688Z,95587.66
2018-05-31T08:27:35.194Z,95587.45
2018-05-31T08:30:02.707Z,95583.67
2018-05-31T08:32:30.217Z,95579.14
2018-05-31T08:34:57.723Z,95579.16
2018-05-31T08:37:25.228Z,95567.38
2018-05-31T08:39:52.780Z,95579.11
2018-05-31T08:42:20.326Z,95575.91
2018-05-31T08:44:47.822Z,95573.42
2018-05-31T08:47:15.329Z,95566.22
2018-05-31T08:49:42.836Z,95570.81
2018-05-31T08:52:10.376Z,95569.81
2018-05-31T08:54:37.882Z,95559.67
2018-05-31T08:57:05.399Z,95558.94
2018-05-31T08:59:32.903Z,95552.22
2018-05-31T09:02:00.406Z,95549.08
2018-05-31T09:04:27.945Z,95557.92
2018-05-31T09:06:55.448Z,95538.55
2018-05-31T09:09:23.013Z,95558.08
2018-05-31T09:11:50.507Z,95554.10
2018-05-31T09:14:18.007Z,95546.12
2018-05-31T09:16:46.315Z,95546.59
2018-05-31T09:19:13.821Z,95545.55
2018-05-31T09:21:41.347Z,95543.94
2018-05-31T09:24:08.849Z,95550.20
2018-05-31T09:26:36.343Z,95544.59
2018-05-31T09:29:03.867Z,95538.51
2018-05-31T09:31:31.366Z,95545.23
2018-05-31T09:33:58.863Z,95537.73
2018-05-31T09:36:26.376Z,95529.66
2018-05-31T09:38:53.887Z,95524.29
2018-05-31T09:41:21.386Z,95529.81
2018-05-31T09:43:48.915Z,95526.30
2018-05-31T09:46:16.418Z,95517.61
2018-05-31T09:48:43.918Z,95530.20
2018-05-31T09:51:11.423Z,95523.72
2018-05-31T09:53:38.955Z,95522.75
2018-05-31T09:56:06.494Z,95520.36
2018-05-31T09:58:33.987Z,95518.09
2018-05-31T10:01:01.548Z,95514.06
2018-05-31T10:03:29.046Z,95515.62
2018-05-31T10:05:56.559Z,95507.06
2018-05-31T10:08:24.081Z,95503.27
2018-05-31T10:10:51.596Z,95499.83
2018-05-31T10:13:19.145Z,95500.38
2018-05-31T10:15:46.666Z,95490.00
2018-05-31T10:18:14.179Z,95492.62
2018-05-31T10:20:41.684Z,95507.75
2018-05-31T10:23:09.227Z,95499.40
2018-05-31T10:25:36.785Z,95498.69
2018-05-31T10:28:04.321Z,95484.05
2018-05-31T10:30:31.883Z,95487.22
2018-05-31T10:32:59.422Z,95489.87
2018-05-31T10:35:27.057Z,95490.63
2018-05-31T10:37:54.555Z,95487.61
2018-05-31T10:40:22.178Z,95466.40
2018-05-31T10:42:49.683Z,95472.93
2018-05-31T10:45:17.192Z,95460.29
2018-05-31T10:47:44.692Z,95477.89
2018-05-31T10:50:12.200Z,95477.01
2018-05-31T10:52:39.723Z,95470.78
2018-05-31T10:55:07.273Z,95473.84
2018-05-31T10:57:34.793Z,95469.23
2018-05-31T11:00:02.362Z,95459.47
2018-05-31T11:02:29.880Z,95464.27
2018-05-31T11:04:57.399Z,95466.37
2018-05-31T11:07:24.971Z,95467.14
2018-05-31T11:09:52.504Z,95466.21
2018-05-31T11:12:20.018Z,95466.09
2018-05-31T11:14:47.538Z,95464.52
2018-05-31T11:17:15.055Z,95463.03
2018-05-31T11:19:42.600Z,95456.21
2018-05-31T11:22:10.111Z,95456.40
2018-05-31T11:24:37.663Z,95459.95
2018-05-31T11:27:05.187Z,95440.86
2018-05-31T11:29:32.725Z,95453.13
2018-05-31T11:32:00.231Z,95445.30
2018-05-31T11:34:27.731Z,95434.84
2018-05-31T11:36:55.323Z,95419.92
2018-05-31T11:39:22.872Z,95432.62
2018-05-31T11:41:50.456Z,95439.66
2018-05-31T11:44:17.959Z,95434.35
2018-05-31T11:46:45.825Z,95436.69
2018-05-31T11:49:13.331Z,95422.63
2018-05-31T11:51:40.928Z,95427.11
2018-05-31T11:54:08.437Z,95426.11
2018-05-31T11:56:36.012Z,95427.36
2018-05-31T11:59:03.530Z,95413.72
2018-05-31T12:01:31.056Z,95431.47
2018-05-31T12:03:58.826Z,95421.78
2018-05-31T12:06:26.361Z,95422.72
2018-05-31T12:08:53.906Z,95412.56
2018-05-31T12:11:21.419Z,95404.53
2018-05-31T12:13:48.959Z,95408.97
2018-05-31T12:16:16.469Z,95407.31
2018-05-31T12:18:43.990Z,95399.55
2018-05-31T12:21:11.509Z,95397.09
2018-05-31T12:23:39.077Z,95375.82
2018-05-31T12:26:06.901Z,95390.15
2018-05-31T12:28:34.707Z,95398.34
2018-05-31T12:31:02.349Z,95395.72
2018-05-31T12:33:29.866Z,95393.65
2018-05-31T12:35:57.371Z,95399.19
2018-05-31T12:38:24.930Z,95385.97
2018-05-31T12:40:52.431Z,95385.78
2018-05-31T12:43:19.971Z,95380.23
2018-05-31T12:45:47.491Z,95379.45
2018-05-31T12:48:15.039Z,95367.09
2018-05-31T12:50:42.554Z,95366.90
2018-05-31T12:53:10.069Z,95346.70
2018-05-31T12:55:37.626Z,95362.38
2018-05-31T12:58:05.175Z,95345.53
2018-05-31T13:00:32.732Z,95358.71
2018-05-31T13:03:00.236Z,95351.05
2018-05-31T13:05:27.743Z,95350.15
2018-05-31T13:07:55.253Z,95349.11
2018-05-31T13:10:22.817Z,95350.32
2018-05-31T13:12:50.326Z,95344.52
2018-05-31T13:15:17.846Z,95342.45
2018-05-31T13:17:45.351Z,95335.69
2018-05-31T13:20:12.936Z,95329.06
2018-05-31T13:22:40.444Z,95328.47
2018-05-31T13:25:07.964Z,95328.63
2018-05-31T13:27:35.480Z,95333.02
2018-05-31T13:30:04.422Z,95329.08
2018-05-31T13:32:31.930Z,95322.94
2018-05-31T13:34:59.538Z,95322.16
2018-05-31T13:37:27.052Z,95322.28
2018-05-31T13:39:54.598Z,95319.70
2018-05-31T13:42:22.099Z,95324.08
2018-05-31T13:44:49.612Z,95320.25
2018-05-31T13:47:17.123Z,95316.70
2018-05-31T13:49:44.657Z,95314.21
2018-05-31T13:52:12.176Z,95306.16
2018-05-31T13:54:39.682Z,95291.10
2018-05-31T13:57:07.184Z,95306.98
2018-05-31T13:59:34.682Z,95305.20
2018-05-31T14:02:02.192Z,95306.87
2018-05-31T14:04:29.740Z,95296.06
2018-05-31T14:06:57.251Z,95294.27
2018-05-31T14:09:24.817Z,95305.83
2018-05-31T14:11:52.290Z,95294.64
2018-05-31T14:14:20.819Z,95303.55
2018-05-31T14:16:48.323Z,95300.45
2018-05-31T14:19:15.836Z,95296.70
2018-05-31T14:21:43.382Z,95284.89
2018-05-31T14:24:10.887Z,95287.16
2018-05-31T14:26:38.412Z,95284.26
2018-05-31T14:29:05.935Z,95280.20
2018-05-31T14:31:33.480Z,95282.33
2018-05-31T14:34:00.996Z,95276.50
2018-05-31T14:36:28.536Z,95274.25
2018-05-31T14:38:56.817Z,95283.36
2018-05-31T14:41:27.018Z,95281.02
2018-05-31T14:43:54.510Z,95282.69
2018-05-31T14:46:22.082Z,95276.84
2018-05-31T14:48:49.587Z,95282.44
2018-05-31T14:51:17.083Z,95269.81
2018-05-31T14:53:44.593Z,95278.27
2018-05-31T14:56:12.116Z,95273.92
2018-05-31T14:58:39.625Z,95280.08
2018-05-31T15:01:07.133Z,95281.72
2018-05-31T15:03:34.657Z,95255.95
2018-05-31T15:06:02.192Z,95273.48
2018-05-31T15:11:51.247Z,95270.24
2018-05-31T15:14:18.787Z,95270.06
2018-05-31T15:16:46.327Z,95276.18
2018-05-31T15:19:13.823Z,95271.36
2018-05-31T15:21:41.322Z,95271.41
2018-05-31T15:24:08.850Z,95266.82
2018-05-31T15:26:36.386Z,95275.02
2018-05-31T15:29:03.881Z,95256.27
2018-05-31T15:31:31.398Z,95273.23
2018-05-31T15:33:58.902Z,95269.92
2018-05-31T15:36:26.399Z,95271.55
2018-05-31T15:38:53.907Z,95262.59
2018-05-31T15:41:21.410Z,95268.22
2018-05-31T15:43:48.961Z,95257.50
2018-05-31T15:46:16.477Z,95271.64
2018-05-31T15:48:43.984Z,95272.97
2018-05-31T15:51:11.479Z,95268.34
2018-05-31T15:53:39.002Z,95265.44
2018-05-31T15:56:06.495Z,95261.94
2018-05-31T15:58:34.015Z,95283.19
2018-05-31T16:01:01.512Z,95287.16
2018-05-31T16:03:29.028Z,95283.20
2018-05-31T16:05:56.594Z,95284.50
2018-05-31T16:08:24.120Z,95270.69
2018-05-31T16:10:51.619Z,95277.81
2018-05-31T16:13:19.114Z,95285.05
2018-05-31T16:15:46.631Z,95280.55
2018-05-31T16:18:14.137Z,95284.80
2018-05-31T16:20:41.650Z,95285.66
2018-05-31T16:23:09.158Z,95276.23
2018-05-31T16:25:36.670Z,95289.33
2018-05-31T16:28:04.197Z,95289.72
2018-05-31T16:30:31.721Z,95277.17
2018-05-31T16:32:59.229Z,95291.95
2018-05-31T16:35:26.739Z,95287.60
2018-05-31T16:37:54.240Z,95283.45
2018-05-31T16:40:21.747Z,95289.94
2018-05-31T16:42:49.255Z,95286.28
2018-05-31T16:45:16.828Z,95290.74
2018-05-31T16:47:44.338Z,95288.67
2018-05-31T16:50:11.891Z,95298.00
2018-05-31T16:52:39.411Z,95294.80
2018-05-31T16:55:06.966Z,95305.04
2018-05-31T16:57:34.539Z,95301.89
2018-05-31T17:00:02.101Z,95299.95
2018-05-31T17:02:29.598Z,95300.84
2018-05-31T17:04:57.095Z,95309.53
2018-05-31T17:07:24.599Z,95303.41
2018-05-31T17:09:52.086Z,95307.28
2018-05-31T17:12:19.623Z,95306.55
2018-05-31T17:14:47.125Z,95305.26
2018-05-31T17:17:14.667Z,95304.02
2018-05-31T17:19:42.167Z,95302.77
2018-05-31T17:22:09.715Z,95302.52
2018-05-31T17:24:37.215Z,95303.59
2018-05-31T17:27:04.718Z,95293.29
2018-05-31T17:29:32.218Z,95297.27
2018-05-31T17:31:59.709Z,95306.81
2018-05-31T17:34:27.227Z,95288.33
2018-05-31T17:36:54.727Z,95305.04
2018-05-31T17:39:22.234Z,95276.25
2018-05-31T17:41:49.781Z,95312.44
2018-05-31T17:44:17.289Z,95310.94
2018-05-31T17:46:44.865Z,95318.30
2018-05-31T17:49:12.384Z,95314.70
2018-05-31T17:51:39.987Z,95318.51
2018-05-31T17:54:07.487Z,95329.17
2018-05-31T17:56:34.996Z,95331.17
2018-05-31T17:59:03.135Z,95332.81
2018-05-31T18:01:30.638Z,95335.93
2018-05-31T18:03:58.141Z,95335.70
2018-05-31T18:06:25.687Z,95336.24
2018-05-31T18:08:53.246Z,95336.09
2018-05-31T18:11:20.803Z,95339.56
2018-05-31T18:13:48.307Z,95320.14
2018-05-31T18:16:15.815Z,95351.69
2018-05-31T18:18:43.311Z,95350.36
2018-05-31T18:21:10.843Z,95357.69
2018-05-31T18:23:38.338Z,95360.24
2018-05-31T18:26:05.887Z,95369.09
2018-05-31T18:28:33.388Z,95367.52
2018-05-31T18:31:00.916Z,95357.39
2018-05-31T18:33:28.415Z,95369.73
2018-05-31T18:35:55.975Z,95379.83
2018-05-31T18:38:23.473Z,95375.37
2018-05-31T18:40:51.049Z,95380.74
2018-05-31T18:43:18.559Z,95384.52
2018-05-31T18:45:46.059Z,95386.32
2018-05-31T18:48:13.562Z,95378.73
2018-05-31T18:50:41.067Z,95394.24
2018-05-31T18:53:16.434Z,95392.55
2018-05-31T18:55:43.947Z,95395.52
2018-05-31T18:58:11.523Z,95407.40
2018-05-31T19:00:39.123Z,95410.58
2018-05-31T19:03:06.653Z,95405.54
2018-05-31T19:05:34.158Z,95413.39
2018-05-31T19:08:01.784Z,95418.12
2018-05-31T19:10:29.287Z,95416.98
2018-05-31T19:13:03.377Z,95421.91
2018-05-31T19:15:34.410Z,95429.38
2018-05-31T19:18:01.896Z,95425.47
2018-05-31T19:20:29.401Z,95426.46
2018-05-31T19:23:01.547Z,95425.45
2018-05-31T19:25:29.063Z,95425.25
2018-05-31T19:27:56.574Z,95421.72
2018-05-31T19:30:29.882Z,95423.50
2018-05-31T19:32:58.433Z,95429.42
2018-05-31T19:35:49.405Z,95421.74
2018-05-31T19:38:25.340Z,95423.14
2018-05-31T19:40:52.865Z,95415.48
2018-05-31T19:43:26.093Z,95420.04
2018-05-31T19:45:53.656Z,95421.84
2018-05-31T19:48:21.250Z,95421.70
2018-05-31T19:50:48.755Z,95422.33
2018-05-31T19:53:21.781Z,95408.50
2018-05-31T19:55:49.284Z,95418.11
2018-05-31T19:58:22.444Z,95418.72
2018-05-31T20:00:55.657Z,95426.57
2018-05-31T20:03:28.853Z,95426.38
2018-05-31T20:05:56.412Z,95432.05
2018-05-31T20:08:23.934Z,95431.67
2018-05-31T20:10:51.450Z,95430.50
2018-05-31T20:13:19.809Z,95439.91
2018-05-31T20:15:47.342Z,95432.64
2018-05-31T20:18:14.907Z,95437.92
2018-05-31T20:20:42.524Z,95436.36
2018-05-31T20:23:10.029Z,95444.97
2018-05-31T20:25:37.541Z,95437.55
2018-05-31T20:28:05.051Z,95445.19
2018-05-31T20:30:32.575Z,95450.45
2018-05-31T20:33:00.119Z,95453.61
2018-05-31T20:35:27.652Z,95447.72
2018-05-31T20:37:55.183Z,95442.41
2018-05-31T20:40:22.693Z,95450.45
2018-05-31T20:42:50.803Z,95451.63
2018-05-31T20:45:18.330Z,95456.91
2018-05-31T20:47:45.836Z,95464.76
2018-05-31T20:50:13.353Z,95460.63
2018-05-31T20:52:40.859Z,95463.77
2018-05-31T20:55:08.369Z,95466.52
2018-05-31T20:57:35.909Z,95469.27
2018-05-31T21:00:05.051Z,95450.28
2018-05-31T21:02:32.550Z,95459.27
2018-05-31T21:05:00.055Z,95462.98
2018-05-31T21:07:27.566Z,95465.45
2018-05-31T21:09:55.066Z,95468.39
2018-05-31T21:12:22.583Z,95469.14
2018-05-31T21:14:50.111Z,95477.89
2018-05-31T21:17:17.610Z,95486.27
2018-05-31T21:19:45.113Z,95491.86
2018-05-31T21:22:12.616Z,95496.33
2018-05-31T21:27:30.205Z,95492.11
2018-05-31T21:29:57.719Z,95491.61
2018-05-31T21:32:25.226Z,95493.89
2018-05-31T21:34:52.763Z,95496.58
2018-05-31T21:37:20.266Z,95493.40
2018-05-31T21:39:47.774Z,95479.36
2018-05-31T21:42:15.272Z,95493.20
2018-05-31T21:44:42.783Z,95501.95
2018-05-31T21:47:10.289Z,95496.05
2018-05-31T21:49:37.783Z,95497.41
2018-05-31T21:52:05.297Z,95493.30
2018-05-31T21:54:32.798Z,95486.41
2018-05-31T21:57:00.320Z,95500.94
2018-05-31T21:59:27.825Z,95500.66
2018-05-31T22:01:55.376Z,95499.86
2018-05-31T22:04:22.895Z,95499.45
2018-05-31T22:06:50.406Z,95506.22
2018-05-31T22:09:17.926Z,95503.35
2018-05-31T22:11:45.467Z,95503.28
2018-05-31T22:14:12.974Z,95502.14
2018-05-31T22:16:40.525Z,95505.50
2018-05-31T22:19:08.044Z,95505.45
2018-05-31T22:21:35.551Z,95504.96
2018-05-31T22:24:03.055Z,95503.19
2018-05-31T22:26:30.567Z,95501.19
2018-05-31T22:28:58.065Z,95499.64
2018-05-31T22:31:25.607Z,95500.63
2018-05-31T22:33:53.140Z,95499.39
2018-05-31T22:36:20.684Z,95492.83
2018-05-31T22:38:48.190Z,95495.62
2018-05-31T22:41:15.794Z,95493.80
2018-05-31T22:43:43.347Z,95494.89
2018-05-31T22:46:10.855Z,95489.61
2018-05-31T22:48:38.392Z,95494.02
2018-05-31T22:51:05.922Z,95494.72
2018-05-31T22:53:33.432Z,95491.26
2018-05-31T22:56:00.979Z,95490.70
2018-05-31T22:58:28.507Z,95500.62
2018-05-31T23:00:56.079Z,95506.69
2018-05-31T23:03:23.639Z,95499.84
2018-05-31T23:05:51.155Z,95498.15
2018-05-31T23:08:18.728Z,95497.61
2018-05-31T23:10:46.231Z,95500.77
2018-05-31T23:13:13.723Z,95498.81
2018-05-31T23:15:41.232Z,95497.72
2018-05-31T23:18:08.746Z,95496.64
2018-05-31T23:20:36.250Z,95498.64
2018-05-31T23:23:03.764Z,95498.85
2018-05-31T23:25:31.258Z,95491.79
2018-05-31T23:27:58.807Z,95395.33
2018-05-31T23:30:26.351Z,95491.91
2018-05-31T23:32:53.867Z,95489.06
2018-05-31T23:35:21.366Z,95492.80
2018-05-31T23:37:48.906Z,95487.28
2018-05-31T23:40:16.407Z,95467.67
2018-05-31T23:42:43.997Z,95485.11
2018-05-31T23:45:11.528Z,95487.30
2018-05-31T23:47:39.882Z,95493.14
2018-05-31T23:50:07.408Z,95486.82
2018-05-31T23:52:34.906Z,95482.23
2018-05-31T23:55:02.399Z,95488.52
2018-05-31T23:57:29.896Z,95489.36
2018-05-31T23:59:57.399Z,95494.50
